Terminal Aerodrome Forecast
Issued by NWS

Home | Current Version | Previous Version | Text Only | Print | Product List | Glossary On
Versions: 1 2 3 4 5 6 7 8 9 10 11 12 13 14 15 16 17 18 19 20 21 22 23 24 25 26
000
FTAK31 PAFA 161139
TAFABT
TAF
PABT 161139Z 1612/1712 00000KT P6SM SCT045 BKN060 BKN100
      TEMPO 1612/1615 4SM -SHRA BR BKN020
     FM161500 15001KT 1/2SM FG BKN004 BKN020
     FM162000 VRB02KT P6SM BKN025
     FM170300 21003KT P6SM BKN100=

USA.gov is the U.S. government's official web portal to all federal, state and local government web resources and services.